sensor_id;sensor_type;location;lat;lon;timestamp;P1;durP1;ratioP1;P2;durP2;ratioP2
63688;SDS011;54895;40.928;14.480;2022-12-10T00:02:18;40.80;;;6.65;;
63688;SDS011;54895;40.928;14.480;2022-12-10T00:04:44;44.63;;;7.82;;
63688;SDS011;54895;40.928;14.480;2022-12-10T00:07:10;47.05;;;8.45;;
63688;SDS011;54895;40.928;14.480;2022-12-10T00:09:36;44.33;;;7.18;;
63688;SDS011;54895;40.928;14.480;2022-12-10T00:12:02;46.30;;;7.13;;
63688;SDS011;54895;40.928;14.480;2022-12-10T00:14:28;48.38;;;8.15;;
63688;SDS011;54895;40.928;14.480;2022-12-10T00:16:54;36.08;;;5.32;;
63688;SDS011;54895;40.928;14.480;2022-12-10T00:19:20;45.05;;;7.20;;
63688;SDS011;54895;40.928;14.480;2022-12-10T00:21:46;47.65;;;7.85;;
63688;SDS011;54895;40.928;14.480;2022-12-10T00:24:12;54.78;;;8.40;;
63688;SDS011;54895;40.928;14.480;2022-12-10T00:26:38;43.60;;;7.45;;
63688;SDS011;54895;40.928;14.480;2022-12-10T00:29:05;42.35;;;8.00;;
63688;SDS011;54895;40.928;14.480;2022-12-10T00:31:33;55.17;;;7.78;;
63688;SDS011;54895;40.928;14.480;2022-12-10T00:34:01;49.83;;;8.65;;
63688;SDS011;54895;40.928;14.480;2022-12-10T00:36:28;41.85;;;6.88;;
63688;SDS011;54895;40.928;14.480;2022-12-10T00:38:55;51.80;;;8.98;;
63688;SDS011;54895;40.928;14.480;2022-12-10T00:41:21;51.33;;;7.40;;
63688;SDS011;54895;40.928;14.480;2022-12-10T00:43:47;46.42;;;7.63;;
63688;SDS011;54895;40.928;14.480;2022-12-10T00:46:13;50.65;;;7.93;;
63688;SDS011;54895;40.928;14.480;2022-12-10T00:51:56;42.70;;;7.63;;
63688;SDS011;54895;40.928;14.480;2022-12-10T00:54:22;52.80;;;7.60;;
63688;SDS011;54895;40.928;14.480;2022-12-10T00:56:48;64.07;;;8.40;;
63688;SDS011;54895;40.928;14.480;2022-12-10T00:59:14;39.50;;;6.80;;
63688;SDS011;54895;40.928;14.480;2022-12-10T01:01:41;50.55;;;7.85;;
63688;SDS011;54895;40.928;14.480;2022-12-10T01:04:11;58.75;;;7.72;;
63688;SDS011;54895;40.928;14.480;2022-12-10T01:06:43;46.47;;;6.85;;
63688;SDS011;54895;40.928;14.480;2022-12-10T01:09:11;50.47;;;7.55;;
63688;SDS011;54895;40.928;14.480;2022-12-10T01:11:37;44.63;;;7.65;;
63688;SDS011;54895;40.928;14.480;2022-12-10T01:14:05;39.63;;;6.53;;
63688;SDS011;54895;40.928;14.480;2022-12-10T01:16:32;51.63;;;7.93;;
63688;SDS011;54895;40.928;14.480;2022-12-10T01:18:58;44.30;;;7.50;;
63688;SDS011;54895;40.928;14.480;2022-12-10T01:21:24;59.17;;;7.75;;
63688;SDS011;54895;40.928;14.480;2022-12-10T01:23:51;43.47;;;7.28;;
63688;SDS011;54895;40.928;14.480;2022-12-10T01:26:19;55.20;;;7.90;;
63688;SDS011;54895;40.928;14.480;2022-12-10T01:28:46;55.10;;;8.20;;
63688;SDS011;54895;40.928;14.480;2022-12-10T01:31:17;45.75;;;7.53;;
63688;SDS011;54895;40.928;14.480;2022-12-10T01:33:44;51.08;;;8.35;;
63688;SDS011;54895;40.928;14.480;2022-12-10T01:36:12;45.85;;;7.25;;
63688;SDS011;54895;40.928;14.480;2022-12-10T01:38:38;49.58;;;6.40;;
63688;SDS011;54895;40.928;14.480;2022-12-10T01:41:05;48.75;;;7.28;;
63688;SDS011;54895;40.928;14.480;2022-12-10T01:43:48;42.42;;;7.18;;
63688;SDS011;54895;40.928;14.480;2022-12-10T01:46:15;44.03;;;7.45;;
63688;SDS011;54895;40.928;14.480;2022-12-10T01:51:51;49.33;;;8.10;;
63688;SDS011;54895;40.928;14.480;2022-12-10T01:54:20;56.33;;;8.13;;
63688;SDS011;54895;40.928;14.480;2022-12-10T01:56:47;53.55;;;8.60;;
63688;SDS011;54895;40.928;14.480;2022-12-10T01:59:15;51.55;;;8.68;;
63688;SDS011;54895;40.928;14.480;2022-12-10T02:04:24;46.58;;;7.47;;
63688;SDS011;54895;40.928;14.480;2022-12-10T02:06:58;59.88;;;8.80;;
63688;SDS011;54895;40.928;14.480;2022-12-10T02:09:50;56.33;;;8.55;;
63688;SDS011;54895;40.928;14.480;2022-12-10T02:17:39;60.08;;;8.85;;
63688;SDS011;54895;40.928;14.480;2022-12-10T02:20:10;50.28;;;8.25;;
63688;SDS011;54895;40.928;14.480;2022-12-10T02:22:50;48.25;;;7.75;;
63688;SDS011;54895;40.928;14.480;2022-12-10T02:25:19;48.42;;;7.10;;
63688;SDS011;54895;40.928;14.480;2022-12-10T02:30:17;46.35;;;7.22;;
63688;SDS011;54895;40.928;14.480;2022-12-10T02:32:44;43.85;;;7.40;;
63688;SDS011;54895;40.928;14.480;2022-12-10T02:35:16;46.03;;;6.57;;
63688;SDS011;54895;40.928;14.480;2022-12-10T02:37:48;38.80;;;6.85;;
63688;SDS011;54895;40.928;14.480;2022-12-10T02:40:16;47.00;;;7.72;;
63688;SDS011;54895;40.928;14.480;2022-12-10T02:42:47;50.75;;;7.55;;
63688;SDS011;54895;40.928;14.480;2022-12-10T02:45:15;46.25;;;7.35;;
63688;SDS011;54895;40.928;14.480;2022-12-10T02:51:29;32.80;;;7.45;;
63688;SDS011;54895;40.928;14.480;2022-12-10T02:54:03;37.30;;;6.78;;
63688;SDS011;54895;40.928;14.480;2022-12-10T03:04:14;51.55;;;7.05;;
63688;SDS011;54895;40.928;14.480;2022-12-10T03:06:46;40.75;;;6.22;;
63688;SDS011;54895;40.928;14.480;2022-12-10T03:11:45;44.33;;;7.38;;
63688;SDS011;54895;40.928;14.480;2022-12-10T03:14:13;36.63;;;7.40;;
63688;SDS011;54895;40.928;14.480;2022-12-10T03:16:44;37.70;;;6.05;;
63688;SDS011;54895;40.928;14.480;2022-12-10T03:19:12;40.50;;;7.20;;
63688;SDS011;54895;40.928;14.480;2022-12-10T03:21:39;39.17;;;6.57;;
63688;SDS011;54895;40.928;14.480;2022-12-10T03:24:08;45.95;;;6.60;;
63688;SDS011;54895;40.928;14.480;2022-12-10T03:26:39;39.42;;;6.53;;
63688;SDS011;54895;40.928;14.480;2022-12-10T03:29:09;33.85;;;6.38;;
63688;SDS011;54895;40.928;14.480;2022-12-10T03:31:39;44.58;;;6.97;;
63688;SDS011;54895;40.928;14.480;2022-12-10T03:34:07;43.22;;;7.00;;
63688;SDS011;54895;40.928;14.480;2022-12-10T03:36:36;40.42;;;5.72;;
63688;SDS011;54895;40.928;14.480;2022-12-10T03:39:07;43.00;;;6.22;;
63688;SDS011;54895;40.928;14.480;2022-12-10T03:41:34;42.63;;;6.88;;
63688;SDS011;54895;40.928;14.480;2022-12-10T03:44:01;41.97;;;6.47;;
63688;SDS011;54895;40.928;14.480;2022-12-10T03:46:28;40.08;;;6.47;;
63688;SDS011;54895;40.928;14.480;2022-12-10T03:52:27;40.60;;;6.75;;
63688;SDS011;54895;40.928;14.480;2022-12-10T03:54:53;45.42;;;7.03;;
63688;SDS011;54895;40.928;14.480;2022-12-10T03:57:20;40.33;;;7.15;;
63688;SDS011;54895;40.928;14.480;2022-12-10T03:59:46;40.22;;;7.43;;
63688;SDS011;54895;40.928;14.480;2022-12-10T04:02:13;49.30;;;6.65;;
63688;SDS011;54895;40.928;14.480;2022-12-10T04:04:39;46.20;;;6.60;;
63688;SDS011;54895;40.928;14.480;2022-12-10T04:07:05;42.78;;;7.00;;
63688;SDS011;54895;40.928;14.480;2022-12-10T04:09:31;50.22;;;7.32;;
63688;SDS011;54895;40.928;14.480;2022-12-10T04:11:57;56.65;;;7.70;;
63688;SDS011;54895;40.928;14.480;2022-12-10T04:14:24;58.63;;;7.75;;
63688;SDS011;54895;40.928;14.480;2022-12-10T04:17:09;48.90;;;8.25;;
63688;SDS011;54895;40.928;14.480;2022-12-10T04:19:35;61.85;;;7.60;;
63688;SDS011;54895;40.928;14.480;2022-12-10T04:22:01;50.63;;;7.68;;
63688;SDS011;54895;40.928;14.480;2022-12-10T04:24:46;52.47;;;8.25;;
63688;SDS011;54895;40.928;14.480;2022-12-10T04:27:35;55.88;;;8.93;;
63688;SDS011;54895;40.928;14.480;2022-12-10T04:30:02;52.38;;;8.43;;
63688;SDS011;54895;40.928;14.480;2022-12-10T04:32:29;44.17;;;7.07;;
63688;SDS011;54895;40.928;14.480;2022-12-10T04:34:55;51.40;;;7.28;;
63688;SDS011;54895;40.928;14.480;2022-12-10T04:37:21;34.00;;;7.28;;
63688;SDS011;54895;40.928;14.480;2022-12-10T04:39:49;43.33;;;7.45;;
63688;SDS011;54895;40.928;14.480;2022-12-10T04:42:15;47.47;;;8.20;;
63688;SDS011;54895;40.928;14.480;2022-12-10T04:44:41;46.28;;;7.05;;
63688;SDS011;54895;40.928;14.480;2022-12-10T04:47:08;48.08;;;7.45;;
63688;SDS011;54895;40.928;14.480;2022-12-10T04:53:31;46.33;;;7.03;;
63688;SDS011;54895;40.928;14.480;2022-12-10T04:55:57;41.28;;;6.68;;
63688;SDS011;54895;40.928;14.480;2022-12-10T04:58:23;39.20;;;6.47;;
63688;SDS011;54895;40.928;14.480;2022-12-10T05:00:49;50.03;;;7.05;;
63688;SDS011;54895;40.928;14.480;2022-12-10T05:03:15;38.85;;;6.10;;
63688;SDS011;54895;40.928;14.480;2022-12-10T05:05:41;40.78;;;6.20;;
63688;SDS011;54895;40.928;14.480;2022-12-10T05:08:07;39.03;;;6.55;;
63688;SDS011;54895;40.928;14.480;2022-12-10T05:10:34;35.05;;;6.60;;
63688;SDS011;54895;40.928;14.480;2022-12-10T05:13:00;34.83;;;6.80;;
63688;SDS011;54895;40.928;14.480;2022-12-10T05:15:26;34.05;;;6.55;;
63688;SDS011;54895;40.928;14.480;2022-12-10T05:17:52;35.70;;;6.40;;
63688;SDS011;54895;40.928;14.480;2022-12-10T05:20:18;46.08;;;6.75;;
63688;SDS011;54895;40.928;14.480;2022-12-10T05:22:44;39.33;;;6.85;;
63688;SDS011;54895;40.928;14.480;2022-12-10T05:25:29;33.08;;;5.95;;
63688;SDS011;54895;40.928;14.480;2022-12-10T05:27:54;46.10;;;6.53;;
63688;SDS011;54895;40.928;14.480;2022-12-10T05:30:20;37.00;;;6.78;;
63688;SDS011;54895;40.928;14.480;2022-12-10T05:32:46;39.05;;;6.40;;
63688;SDS011;54895;40.928;14.480;2022-12-10T05:35:12;35.88;;;7.15;;
63688;SDS011;54895;40.928;14.480;2022-12-10T05:37:38;38.30;;;6.57;;
63688;SDS011;54895;40.928;14.480;2022-12-10T05:40:05;36.65;;;7.20;;
63688;SDS011;54895;40.928;14.480;2022-12-10T05:42:31;41.55;;;7.35;;
63688;SDS011;54895;40.928;14.480;2022-12-10T05:44:57;39.03;;;6.78;;
63688;SDS011;54895;40.928;14.480;2022-12-10T05:47:23;33.20;;;6.53;;
63688;SDS011;54895;40.928;14.480;2022-12-10T05:53:11;37.58;;;7.28;;
63688;SDS011;54895;40.928;14.480;2022-12-10T05:55:39;37.78;;;6.50;;
63688;SDS011;54895;40.928;14.480;2022-12-10T05:58:05;29.30;;;6.95;;
63688;SDS011;54895;40.928;14.480;2022-12-10T06:00:31;39.60;;;6.20;;
63688;SDS011;54895;40.928;14.480;2022-12-10T06:02:57;37.67;;;6.28;;
63688;SDS011;54895;40.928;14.480;2022-12-10T06:05:23;36.25;;;6.35;;
63688;SDS011;54895;40.928;14.480;2022-12-10T06:07:49;38.78;;;5.78;;
63688;SDS011;54895;40.928;14.480;2022-12-10T06:10:17;36.20;;;6.15;;
63688;SDS011;54895;40.928;14.480;2022-12-10T06:12:43;45.88;;;6.70;;
63688;SDS011;54895;40.928;14.480;2022-12-10T06:15:09;33.78;;;6.53;;
63688;SDS011;54895;40.928;14.480;2022-12-10T06:17:35;40.53;;;6.68;;
63688;SDS011;54895;40.928;14.480;2022-12-10T06:20:01;37.83;;;6.45;;
63688;SDS011;54895;40.928;14.480;2022-12-10T06:22:27;41.15;;;6.20;;
63688;SDS011;54895;40.928;14.480;2022-12-10T06:24:53;47.95;;;6.80;;
63688;SDS011;54895;40.928;14.480;2022-12-10T06:27:19;28.30;;;5.53;;
63688;SDS011;54895;40.928;14.480;2022-12-10T06:29:45;37.28;;;6.22;;
63688;SDS011;54895;40.928;14.480;2022-12-10T06:32:11;45.97;;;7.82;;
63688;SDS011;54895;40.928;14.480;2022-12-10T06:34:37;34.67;;;7.45;;
63688;SDS011;54895;40.928;14.480;2022-12-10T06:37:03;43.38;;;6.90;;
63688;SDS011;54895;40.928;14.480;2022-12-10T06:39:29;34.17;;;6.50;;
63688;SDS011;54895;40.928;14.480;2022-12-10T06:41:55;41.65;;;7.57;;
63688;SDS011;54895;40.928;14.480;2022-12-10T06:44:21;34.10;;;5.65;;
63688;SDS011;54895;40.928;14.480;2022-12-10T06:46:47;41.83;;;6.85;;
63688;SDS011;54895;40.928;14.480;2022-12-10T06:49:13;48.40;;;7.28;;
63688;SDS011;54895;40.928;14.480;2022-12-10T06:54:59;36.20;;;5.78;;
63688;SDS011;54895;40.928;14.480;2022-12-10T06:57:25;27.33;;;5.65;;
63688;SDS011;54895;40.928;14.480;2022-12-10T06:59:51;38.90;;;6.07;;
63688;SDS011;54895;40.928;14.480;2022-12-10T07:02:17;29.88;;;5.72;;
63688;SDS011;54895;40.928;14.480;2022-12-10T07:04:43;33.00;;;5.53;;
63688;SDS011;54895;40.928;14.480;2022-12-10T07:07:09;33.65;;;6.10;;
63688;SDS011;54895;40.928;14.480;2022-12-10T07:09:35;34.92;;;5.53;;
63688;SDS011;54895;40.928;14.480;2022-12-10T07:12:03;34.40;;;5.72;;
63688;SDS011;54895;40.928;14.480;2022-12-10T07:14:29;34.13;;;6.20;;
63688;SDS011;54895;40.928;14.480;2022-12-10T07:16:55;38.28;;;7.05;;
63688;SDS011;54895;40.928;14.480;2022-12-10T07:19:21;38.88;;;6.22;;
63688;SDS011;54895;40.928;14.480;2022-12-10T07:21:47;34.72;;;6.18;;
63688;SDS011;54895;40.928;14.480;2022-12-10T07:24:14;34.90;;;6.05;;
63688;SDS011;54895;40.928;14.480;2022-12-10T07:26:41;37.28;;;6.57;;
63688;SDS011;54895;40.928;14.480;2022-12-10T07:29:09;41.20;;;6.15;;
63688;SDS011;54895;40.928;14.480;2022-12-10T07:31:37;32.80;;;6.13;;
63688;SDS011;54895;40.928;14.480;2022-12-10T07:34:03;33.17;;;6.28;;
63688;SDS011;54895;40.928;14.480;2022-12-10T07:36:29;31.90;;;6.03;;
63688;SDS011;54895;40.928;14.480;2022-12-10T07:38:55;33.28;;;5.15;;
63688;SDS011;54895;40.928;14.480;2022-12-10T07:41:22;33.70;;;6.00;;
63688;SDS011;54895;40.928;14.480;2022-12-10T07:43:48;31.73;;;5.90;;
63688;SDS011;54895;40.928;14.480;2022-12-10T07:46:16;29.45;;;5.32;;
63688;SDS011;54895;40.928;14.480;2022-12-10T07:48:43;40.10;;;6.03;;
63688;SDS011;54895;40.928;14.480;2022-12-10T07:54:58;35.55;;;6.15;;
63688;SDS011;54895;40.928;14.480;2022-12-10T07:57:24;29.40;;;5.63;;
63688;SDS011;54895;40.928;14.480;2022-12-10T07:59:50;26.58;;;5.18;;
63688;SDS011;54895;40.928;14.480;2022-12-10T08:02:16;30.05;;;5.38;;
63688;SDS011;54895;40.928;14.480;2022-12-10T08:04:42;29.73;;;5.43;;
63688;SDS011;54895;40.928;14.480;2022-12-10T08:07:08;40.72;;;5.72;;
63688;SDS011;54895;40.928;14.480;2022-12-10T08:09:34;28.55;;;5.97;;
63688;SDS011;54895;40.928;14.480;2022-12-10T08:12:00;37.42;;;6.38;;
63688;SDS011;54895;40.928;14.480;2022-12-10T08:14:26;31.55;;;6.55;;
63688;SDS011;54895;40.928;14.480;2022-12-10T08:16:52;23.73;;;5.70;;
63688;SDS011;54895;40.928;14.480;2022-12-10T08:19:18;34.50;;;6.30;;
63688;SDS011;54895;40.928;14.480;2022-12-10T08:21:44;34.08;;;7.57;;
63688;SDS011;54895;40.928;14.480;2022-12-10T08:24:10;31.75;;;6.55;;
63688;SDS011;54895;40.928;14.480;2022-12-10T08:26:36;33.95;;;6.47;;
63688;SDS011;54895;40.928;14.480;2022-12-10T08:29:04;28.17;;;5.93;;
63688;SDS011;54895;40.928;14.480;2022-12-10T08:31:30;27.02;;;6.10;;
63688;SDS011;54895;40.928;14.480;2022-12-10T08:33:56;27.90;;;6.20;;
63688;SDS011;54895;40.928;14.480;2022-12-10T08:36:22;31.05;;;6.75;;
63688;SDS011;54895;40.928;14.480;2022-12-10T08:38:48;33.17;;;6.28;;
63688;SDS011;54895;40.928;14.480;2022-12-10T08:41:15;37.25;;;6.10;;
63688;SDS011;54895;40.928;14.480;2022-12-10T08:43:41;34.88;;;6.35;;
63688;SDS011;54895;40.928;14.480;2022-12-10T08:46:08;39.03;;;6.72;;
63688;SDS011;54895;40.928;14.480;2022-12-10T08:48:34;28.77;;;5.57;;
63688;SDS011;54895;40.928;14.480;2022-12-10T08:54:53;36.63;;;7.30;;
63688;SDS011;54895;40.928;14.480;2022-12-10T08:57:19;44.92;;;7.60;;
63688;SDS011;54895;40.928;14.480;2022-12-10T08:59:45;30.48;;;6.57;;
63688;SDS011;54895;40.928;14.480;2022-12-10T09:02:11;35.08;;;6.90;;
63688;SDS011;54895;40.928;14.480;2022-12-10T09:04:38;33.20;;;5.75;;
63688;SDS011;54895;40.928;14.480;2022-12-10T09:07:07;40.38;;;6.45;;
63688;SDS011;54895;40.928;14.480;2022-12-10T09:09:33;31.10;;;5.82;;
63688;SDS011;54895;40.928;14.480;2022-12-10T09:12:02;33.25;;;7.85;;
63688;SDS011;54895;40.928;14.480;2022-12-10T09:14:28;31.90;;;5.88;;
63688;SDS011;54895;40.928;14.480;2022-12-10T09:16:54;33.17;;;5.95;;
63688;SDS011;54895;40.928;14.480;2022-12-10T09:19:20;40.72;;;6.60;;
63688;SDS011;54895;40.928;14.480;2022-12-10T09:21:46;41.47;;;7.07;;
63688;SDS011;54895;40.928;14.480;2022-12-10T09:24:13;39.13;;;7.18;;
63688;SDS011;54895;40.928;14.480;2022-12-10T09:26:39;41.03;;;6.03;;
63688;SDS011;54895;40.928;14.480;2022-12-10T09:29:06;37.85;;;6.07;;
63688;SDS011;54895;40.928;14.480;2022-12-10T09:31:32;41.88;;;6.72;;
63688;SDS011;54895;40.928;14.480;2022-12-10T09:33:58;41.92;;;6.20;;
63688;SDS011;54895;40.928;14.480;2022-12-10T09:36:24;34.25;;;5.68;;
63688;SDS011;54895;40.928;14.480;2022-12-10T09:38:50;40.80;;;6.57;;
63688;SDS011;54895;40.928;14.480;2022-12-10T09:43:46;35.00;;;6.45;;
63688;SDS011;54895;40.928;14.480;2022-12-10T09:51:24;43.50;;;6.85;;
63688;SDS011;54895;40.928;14.480;2022-12-10T09:56:22;38.28;;;6.43;;
63688;SDS011;54895;40.928;14.480;2022-12-10T09:58:49;37.70;;;6.25;;
63688;SDS011;54895;40.928;14.480;2022-12-10T10:01:15;36.92;;;6.22;;
63688;SDS011;54895;40.928;14.480;2022-12-10T10:03:42;32.33;;;6.18;;
63688;SDS011;54895;40.928;14.480;2022-12-10T10:06:10;36.95;;;6.45;;
63688;SDS011;54895;40.928;14.480;2022-12-10T10:08:47;42.65;;;6.03;;
63688;SDS011;54895;40.928;14.480;2022-12-10T10:11:16;35.85;;;6.60;;
63688;SDS011;54895;40.928;14.480;2022-12-10T10:13:44;32.95;;;6.50;;
63688;SDS011;54895;40.928;14.480;2022-12-10T10:16:23;48.28;;;7.40;;
63688;SDS011;54895;40.928;14.480;2022-12-10T10:18:52;38.58;;;7.10;;
63688;SDS011;54895;40.928;14.480;2022-12-10T10:21:24;35.05;;;7.22;;
63688;SDS011;54895;40.928;14.480;2022-12-10T10:23:51;43.05;;;6.40;;
63688;SDS011;54895;40.928;14.480;2022-12-10T10:26:17;38.95;;;6.72;;
63688;SDS011;54895;40.928;14.480;2022-12-10T10:28:43;35.75;;;6.55;;
63688;SDS011;54895;40.928;14.480;2022-12-10T10:31:16;35.17;;;6.07;;
63688;SDS011;54895;40.928;14.480;2022-12-10T10:33:51;35.22;;;6.50;;
63688;SDS011;54895;40.928;14.480;2022-12-10T10:36:22;33.60;;;6.38;;
63688;SDS011;54895;40.928;14.480;2022-12-10T10:38:49;31.80;;;6.68;;
63688;SDS011;54895;40.928;14.480;2022-12-10T10:41:15;39.63;;;7.10;;
63688;SDS011;54895;40.928;14.480;2022-12-10T10:43:42;33.35;;;6.35;;
63688;SDS011;54895;40.928;14.480;2022-12-10T10:46:11;21.65;;;5.50;;
63688;SDS011;54895;40.928;14.480;2022-12-10T10:48:38;28.02;;;5.43;;
63688;SDS011;54895;40.928;14.480;2022-12-10T10:53:32;24.50;;;5.00;;
63688;SDS011;54895;40.928;14.480;2022-12-10T10:56:07;32.17;;;5.65;;
63688;SDS011;54895;40.928;14.480;2022-12-10T10:58:35;32.33;;;5.15;;
63688;SDS011;54895;40.928;14.480;2022-12-10T11:01:04;30.30;;;5.75;;
63688;SDS011;54895;40.928;14.480;2022-12-10T11:03:33;32.85;;;5.13;;
63688;SDS011;54895;40.928;14.480;2022-12-10T11:06:00;28.83;;;5.70;;
63688;SDS011;54895;40.928;14.480;2022-12-10T11:08:31;36.35;;;6.22;;
63688;SDS011;54895;40.928;14.480;2022-12-10T11:11:01;29.25;;;5.68;;
63688;SDS011;54895;40.928;14.480;2022-12-10T11:13:30;31.00;;;5.10;;
63688;SDS011;54895;40.928;14.480;2022-12-10T11:15:59;28.77;;;5.72;;
63688;SDS011;54895;40.928;14.480;2022-12-10T11:18:36;27.52;;;5.70;;
63688;SDS011;54895;40.928;14.480;2022-12-10T11:23:40;35.13;;;7.43;;
63688;SDS011;54895;40.928;14.480;2022-12-10T11:31:27;34.58;;;5.50;;
63688;SDS011;54895;40.928;14.480;2022-12-10T11:34:18;26.92;;;6.03;;
63688;SDS011;54895;40.928;14.480;2022-12-10T11:50:37;36.58;;;6.07;;
63688;SDS011;54895;40.928;14.480;2022-12-10T11:58:28;34.58;;;6.22;;
63688;SDS011;54895;40.928;14.480;2022-12-10T12:01:03;18.33;;;3.42;;
63688;SDS011;54895;40.928;14.480;2022-12-10T12:08:52;42.80;;;7.97;;
63688;SDS011;54895;40.928;14.480;2022-12-10T12:16:41;37.05;;;7.20;;
63688;SDS011;54895;40.928;14.480;2022-12-10T12:19:24;42.88;;;7.57;;
63688;SDS011;54895;40.928;14.480;2022-12-10T12:22:15;36.63;;;7.30;;
63688;SDS011;54895;40.928;14.480;2022-12-10T12:24:42;38.85;;;6.13;;
63688;SDS011;54895;40.928;14.480;2022-12-10T12:27:15;42.03;;;7.18;;
63688;SDS011;54895;40.928;14.480;2022-12-10T12:29:47;35.42;;;6.60;;
63688;SDS011;54895;40.928;14.480;2022-12-10T12:32:20;28.02;;;6.50;;
63688;SDS011;54895;40.928;14.480;2022-12-10T12:34:51;44.25;;;6.82;;
63688;SDS011;54895;40.928;14.480;2022-12-10T12:37:20;34.65;;;6.75;;
63688;SDS011;54895;40.928;14.480;2022-12-10T12:39:54;36.83;;;6.88;;
63688;SDS011;54895;40.928;14.480;2022-12-10T12:42:35;36.83;;;7.28;;
63688;SDS011;54895;40.928;14.480;2022-12-10T12:50:11;36.67;;;6.35;;
63688;SDS011;54895;40.928;14.480;2022-12-10T13:04:31;29.75;;;5.55;;
63688;SDS011;54895;40.928;14.480;2022-12-10T13:09:49;26.40;;;5.03;;
63688;SDS011;54895;40.928;14.480;2022-12-10T13:14:56;30.52;;;5.00;;
63688;SDS011;54895;40.928;14.480;2022-12-10T13:17:33;24.17;;;5.05;;
63688;SDS011;54895;40.928;14.480;2022-12-10T13:22:54;34.50;;;6.35;;
63688;SDS011;54895;40.928;14.480;2022-12-10T13:25:21;22.98;;;5.35;;
63688;SDS011;54895;40.928;14.480;2022-12-10T13:28:16;31.77;;;6.70;;
63688;SDS011;54895;40.928;14.480;2022-12-10T13:30:42;32.28;;;6.88;;
63688;SDS011;54895;40.928;14.480;2022-12-10T13:33:16;31.38;;;7.00;;
63688;SDS011;54895;40.928;14.480;2022-12-10T13:35:48;27.85;;;5.30;;
63688;SDS011;54895;40.928;14.480;2022-12-10T13:38:19;25.75;;;5.93;;
63688;SDS011;54895;40.928;14.480;2022-12-10T13:40:56;21.92;;;5.65;;
63688;SDS011;54895;40.928;14.480;2022-12-10T13:43:41;23.55;;;5.40;;
63688;SDS011;54895;40.928;14.480;2022-12-10T13:48:55;22.83;;;6.18;;
63688;SDS011;54895;40.928;14.480;2022-12-10T13:59:28;20.50;;;5.90;;
63688;SDS011;54895;40.928;14.480;2022-12-10T14:06:49;27.63;;;6.25;;
63688;SDS011;54895;40.928;14.480;2022-12-10T14:11:51;24.08;;;6.93;;
63688;SDS011;54895;40.928;14.480;2022-12-10T14:17:01;27.70;;;8.13;;
63688;SDS011;54895;40.928;14.480;2022-12-10T14:19:29;22.00;;;6.38;;
63688;SDS011;54895;40.928;14.480;2022-12-10T14:21:55;28.05;;;6.38;;
63688;SDS011;54895;40.928;14.480;2022-12-10T14:24:27;21.35;;;5.75;;
63688;SDS011;54895;40.928;14.480;2022-12-10T14:26:57;22.88;;;6.40;;
63688;SDS011;54895;40.928;14.480;2022-12-10T14:29:23;26.55;;;6.30;;
63688;SDS011;54895;40.928;14.480;2022-12-10T14:31:50;23.95;;;6.38;;
63688;SDS011;54895;40.928;14.480;2022-12-10T14:34:17;18.40;;;6.15;;
63688;SDS011;54895;40.928;14.480;2022-12-10T14:36:49;21.63;;;7.05;;
63688;SDS011;54895;40.928;14.480;2022-12-10T14:39:32;25.13;;;8.48;;
63688;SDS011;54895;40.928;14.480;2022-12-10T14:42:04;17.73;;;6.65;;
63688;SDS011;54895;40.928;14.480;2022-12-10T14:44:31;14.27;;;4.80;;
63688;SDS011;54895;40.928;14.480;2022-12-10T14:47:05;17.02;;;3.95;;
63688;SDS011;54895;40.928;14.480;2022-12-10T14:49:32;17.33;;;3.75;;
63688;SDS011;54895;40.928;14.480;2022-12-10T14:52:07;22.08;;;4.25;;
63688;SDS011;54895;40.928;14.480;2022-12-10T14:54:36;24.13;;;5.20;;
63688;SDS011;54895;40.928;14.480;2022-12-10T14:57:05;30.27;;;5.10;;
63688;SDS011;54895;40.928;14.480;2022-12-10T15:02:51;22.52;;;4.00;;
63688;SDS011;54895;40.928;14.480;2022-12-10T15:04:57;21.00;;;3.72;;
63688;SDS011;54895;40.928;14.480;2022-12-10T15:07:25;16.00;;;3.75;;
63688;SDS011;54895;40.928;14.480;2022-12-10T15:09:52;16.70;;;3.35;;
63688;SDS011;54895;40.928;14.480;2022-12-10T15:12:29;24.42;;;4.68;;
63688;SDS011;54895;40.928;14.480;2022-12-10T15:14:57;14.63;;;2.80;;
63688;SDS011;54895;40.928;14.480;2022-12-10T15:17:35;25.08;;;4.05;;
63688;SDS011;54895;40.928;14.480;2022-12-10T15:20:02;12.43;;;2.42;;
63688;SDS011;54895;40.928;14.480;2022-12-10T15:22:28;12.57;;;2.45;;
63688;SDS011;54895;40.928;14.480;2022-12-10T15:24:55;9.50;;;2.03;;
63688;SDS011;54895;40.928;14.480;2022-12-10T15:27:22;8.23;;;1.58;;
63688;SDS011;54895;40.928;14.480;2022-12-10T15:29:49;17.02;;;3.10;;
63688;SDS011;54895;40.928;14.480;2022-12-10T15:32:22;20.27;;;3.85;;
63688;SDS011;54895;40.928;14.480;2022-12-10T15:34:54;24.80;;;4.68;;
63688;SDS011;54895;40.928;14.480;2022-12-10T15:37:25;18.10;;;3.65;;
63688;SDS011;54895;40.928;14.480;2022-12-10T15:39:53;14.77;;;3.75;;
63688;SDS011;54895;40.928;14.480;2022-12-10T15:47:36;21.45;;;3.50;;
63688;SDS011;54895;40.928;14.480;2022-12-10T15:50:04;19.45;;;4.85;;
63688;SDS011;54895;40.928;14.480;2022-12-10T15:52:30;20.10;;;4.53;;
63688;SDS011;54895;40.928;14.480;2022-12-10T15:54:57;15.95;;;3.78;;
63688;SDS011;54895;40.928;14.480;2022-12-10T15:57:29;13.90;;;3.40;;
63688;SDS011;54895;40.928;14.480;2022-12-10T15:59:56;14.98;;;4.13;;
63688;SDS011;54895;40.928;14.480;2022-12-10T16:04:49;21.02;;;3.95;;
63688;SDS011;54895;40.928;14.480;2022-12-10T16:07:15;14.95;;;3.70;;
63688;SDS011;54895;40.928;14.480;2022-12-10T16:09:41;19.52;;;4.35;;
63688;SDS011;54895;40.928;14.480;2022-12-10T16:12:09;17.40;;;3.95;;
63688;SDS011;54895;40.928;14.480;2022-12-10T16:14:37;18.33;;;5.07;;
63688;SDS011;54895;40.928;14.480;2022-12-10T16:17:03;20.75;;;4.78;;
63688;SDS011;54895;40.928;14.480;2022-12-10T16:19:29;22.05;;;5.90;;
63688;SDS011;54895;40.928;14.480;2022-12-10T16:21:55;19.77;;;5.32;;
63688;SDS011;54895;40.928;14.480;2022-12-10T16:24:22;25.90;;;5.97;;
63688;SDS011;54895;40.928;14.480;2022-12-10T16:26:48;20.50;;;4.75;;
63688;SDS011;54895;40.928;14.480;2022-12-10T16:29:14;28.38;;;5.50;;
63688;SDS011;54895;40.928;14.480;2022-12-10T16:31:41;25.08;;;5.10;;
63688;SDS011;54895;40.928;14.480;2022-12-10T16:34:08;29.92;;;6.57;;
63688;SDS011;54895;40.928;14.480;2022-12-10T16:36:34;25.73;;;5.82;;
63688;SDS011;54895;40.928;14.480;2022-12-10T16:39:02;26.08;;;5.68;;
63688;SDS011;54895;40.928;14.480;2022-12-10T16:41:28;23.20;;;5.65;;
63688;SDS011;54895;40.928;14.480;2022-12-10T16:43:54;22.30;;;5.93;;
63688;SDS011;54895;40.928;14.480;2022-12-10T16:46:20;26.83;;;6.35;;
63688;SDS011;54895;40.928;14.480;2022-12-10T16:48:46;34.90;;;6.68;;
63688;SDS011;54895;40.928;14.480;2022-12-10T16:51:28;28.90;;;6.35;;
63688;SDS011;54895;40.928;14.480;2022-12-10T16:53:55;19.25;;;5.28;;
63688;SDS011;54895;40.928;14.480;2022-12-10T16:56:21;23.92;;;5.32;;
63688;SDS011;54895;40.928;14.480;2022-12-10T16:58:47;21.27;;;5.18;;
63688;SDS011;54895;40.928;14.480;2022-12-10T17:01:20;34.83;;;5.95;;
63688;SDS011;54895;40.928;14.480;2022-12-10T17:03:47;30.30;;;5.97;;
63688;SDS011;54895;40.928;14.480;2022-12-10T17:06:14;29.65;;;5.50;;
63688;SDS011;54895;40.928;14.480;2022-12-10T17:08:40;22.73;;;5.28;;